sensor_id;sensor_type;location;lat;lon;timestamp;P1;durP1;ratioP1;P2;durP2;ratioP2
23732;SDS011;12047;53.450;-2.286;2023-01-08T00:06:14;20.98;;;3.15;;
23732;SDS011;12047;53.450;-2.286;2023-01-08T00:11:20;17.35;;;2.85;;
23732;SDS011;12047;53.450;-2.286;2023-01-08T00:16:26;18.83;;;2.80;;
23732;SDS011;12047;53.450;-2.286;2023-01-08T00:21:27;17.45;;;2.90;;
23732;SDS011;12047;53.450;-2.286;2023-01-08T00:32:13;24.27;;;3.40;;
23732;SDS011;12047;53.450;-2.286;2023-01-08T00:37:13;23.50;;;3.50;;
23732;SDS011;12047;53.450;-2.286;2023-01-08T00:42:17;19.88;;;3.40;;
23732;SDS011;12047;53.450;-2.286;2023-01-08T00:52:49;21.33;;;3.53;;
23732;SDS011;12047;53.450;-2.286;2023-01-08T00:57:50;18.95;;;3.10;;
23732;SDS011;12047;53.450;-2.286;2023-01-08T01:02:57;21.00;;;3.42;;
23732;SDS011;12047;53.450;-2.286;2023-01-08T01:07:58;20.00;;;3.27;;
23732;SDS011;12047;53.450;-2.286;2023-01-08T01:12:58;17.52;;;3.45;;
23732;SDS011;12047;53.450;-2.286;2023-01-08T01:17:59;17.73;;;2.88;;
23732;SDS011;12047;53.450;-2.286;2023-01-08T01:23:03;19.25;;;2.80;;
23732;SDS011;12047;53.450;-2.286;2023-01-08T01:28:04;25.85;;;4.03;;
23732;SDS011;12047;53.450;-2.286;2023-01-08T01:33:07;16.83;;;3.17;;
23732;SDS011;12047;53.450;-2.286;2023-01-08T01:38:08;24.58;;;4.13;;
23732;SDS011;12047;53.450;-2.286;2023-01-08T01:43:14;20.58;;;3.22;;
23732;SDS011;12047;53.450;-2.286;2023-01-08T01:48:14;21.38;;;3.42;;
23732;SDS011;12047;53.450;-2.286;2023-01-08T01:53:28;19.50;;;4.15;;
23732;SDS011;12047;53.450;-2.286;2023-01-08T02:03:35;24.60;;;3.63;;
23732;SDS011;12047;53.450;-2.286;2023-01-08T02:08:41;19.20;;;3.13;;
23732;SDS011;12047;53.450;-2.286;2023-01-08T02:14:15;17.20;;;2.53;;
23732;SDS011;12047;53.450;-2.286;2023-01-08T02:30:09;17.98;;;2.90;;
23732;SDS011;12047;53.450;-2.286;2023-01-08T02:35:13;14.05;;;2.50;;
23732;SDS011;12047;53.450;-2.286;2023-01-08T02:40:17;13.82;;;2.15;;
23732;SDS011;12047;53.450;-2.286;2023-01-08T02:56:04;19.35;;;2.80;;
23732;SDS011;12047;53.450;-2.286;2023-01-08T03:01:09;24.85;;;3.40;;
23732;SDS011;12047;53.450;-2.286;2023-01-08T03:06:13;23.17;;;3.17;;
23732;SDS011;12047;53.450;-2.286;2023-01-08T03:11:19;17.60;;;2.67;;
23732;SDS011;12047;53.450;-2.286;2023-01-08T03:16:23;18.67;;;2.40;;
23732;SDS011;12047;53.450;-2.286;2023-01-08T03:21:32;17.30;;;2.58;;
23732;SDS011;12047;53.450;-2.286;2023-01-08T03:26:36;18.35;;;3.03;;
23732;SDS011;12047;53.450;-2.286;2023-01-08T03:31:40;14.02;;;2.40;;
23732;SDS011;12047;53.450;-2.286;2023-01-08T03:36:44;13.15;;;2.17;;
23732;SDS011;12047;53.450;-2.286;2023-01-08T03:41:51;11.68;;;2.10;;
23732;SDS011;12047;53.450;-2.286;2023-01-08T03:46:56;14.60;;;2.35;;
23732;SDS011;12047;53.450;-2.286;2023-01-08T03:51:57;13.00;;;2.47;;
23732;SDS011;12047;53.450;-2.286;2023-01-08T03:56:58;14.63;;;2.20;;
23732;SDS011;12047;53.450;-2.286;2023-01-08T04:02:04;11.93;;;1.85;;
23732;SDS011;12047;53.450;-2.286;2023-01-08T04:07:05;15.48;;;2.10;;
23732;SDS011;12047;53.450;-2.286;2023-01-08T04:12:07;11.68;;;2.20;;
23732;SDS011;12047;53.450;-2.286;2023-01-08T04:17:10;10.68;;;2.08;;
23732;SDS011;12047;53.450;-2.286;2023-01-08T04:22:11;11.63;;;2.20;;
23732;SDS011;12047;53.450;-2.286;2023-01-08T04:27:12;9.32;;;2.40;;
23732;SDS011;12047;53.450;-2.286;2023-01-08T04:32:12;11.00;;;1.63;;
23732;SDS011;12047;53.450;-2.286;2023-01-08T04:37:13;7.50;;;1.30;;
23732;SDS011;12047;53.450;-2.286;2023-01-08T04:42:14;11.43;;;1.88;;
23732;SDS011;12047;53.450;-2.286;2023-01-08T04:47:14;9.73;;;1.52;;
23732;SDS011;12047;53.450;-2.286;2023-01-08T04:52:15;10.75;;;1.73;;
23732;SDS011;12047;53.450;-2.286;2023-01-08T04:57:15;13.85;;;1.98;;
23732;SDS011;12047;53.450;-2.286;2023-01-08T05:02:16;7.82;;;1.40;;
23732;SDS011;12047;53.450;-2.286;2023-01-08T05:07:17;7.45;;;1.50;;
23732;SDS011;12047;53.450;-2.286;2023-01-08T05:12:18;7.80;;;1.30;;
23732;SDS011;12047;53.450;-2.286;2023-01-08T05:17:21;9.73;;;1.52;;
23732;SDS011;12047;53.450;-2.286;2023-01-08T05:22:21;9.68;;;1.80;;
23732;SDS011;12047;53.450;-2.286;2023-01-08T05:27:22;8.23;;;1.50;;
23732;SDS011;12047;53.450;-2.286;2023-01-08T05:32:23;9.82;;;1.40;;
23732;SDS011;12047;53.450;-2.286;2023-01-08T05:37:26;7.78;;;1.00;;
23732;SDS011;12047;53.450;-2.286;2023-01-08T05:42:27;5.18;;;0.82;;
23732;SDS011;12047;53.450;-2.286;2023-01-08T05:47:28;1.98;;;0.57;;
23732;SDS011;12047;53.450;-2.286;2023-01-08T05:52:29;1.63;;;0.40;;
23732;SDS011;12047;53.450;-2.286;2023-01-08T05:57:30;4.32;;;0.60;;
23732;SDS011;12047;53.450;-2.286;2023-01-08T06:02:31;2.20;;;0.45;;
23732;SDS011;12047;53.450;-2.286;2023-01-08T06:18:15;1.00;;;0.40;;
23732;SDS011;12047;53.450;-2.286;2023-01-08T06:23:22;1.02;;;0.30;;
23732;SDS011;12047;53.450;-2.286;2023-01-08T06:28:22;1.85;;;0.30;;
23732;SDS011;12047;53.450;-2.286;2023-01-08T06:33:23;0.43;;;0.20;;
23732;SDS011;12047;53.450;-2.286;2023-01-08T06:38:24;1.08;;;0.30;;
23732;SDS011;12047;53.450;-2.286;2023-01-08T06:43:25;0.38;;;0.30;;
23732;SDS011;12047;53.450;-2.286;2023-01-08T06:48:26;3.58;;;0.40;;
23732;SDS011;12047;53.450;-2.286;2023-01-08T06:53:26;4.68;;;0.60;;
23732;SDS011;12047;53.450;-2.286;2023-01-08T06:58:27;2.30;;;0.70;;
23732;SDS011;12047;53.450;-2.286;2023-01-08T07:03:29;2.72;;;0.52;;
23732;SDS011;12047;53.450;-2.286;2023-01-08T07:08:30;3.22;;;0.57;;
23732;SDS011;12047;53.450;-2.286;2023-01-08T07:13:31;3.22;;;0.40;;
23732;SDS011;12047;53.450;-2.286;2023-01-08T07:18:31;3.95;;;0.60;;
23732;SDS011;12047;53.450;-2.286;2023-01-08T07:23:32;1.83;;;0.70;;
23732;SDS011;12047;53.450;-2.286;2023-01-08T07:28:42;2.15;;;0.70;;
23732;SDS011;12047;53.450;-2.286;2023-01-08T07:33:43;4.72;;;0.63;;
23732;SDS011;12047;53.450;-2.286;2023-01-08T07:38:44;1.63;;;0.43;;
23732;SDS011;12047;53.450;-2.286;2023-01-08T07:49:04;3.00;;;0.50;;
23732;SDS011;12047;53.450;-2.286;2023-01-08T07:54:05;0.47;;;0.28;;
23732;SDS011;12047;53.450;-2.286;2023-01-08T07:59:06;2.47;;;0.38;;
23732;SDS011;12047;53.450;-2.286;2023-01-08T08:04:06;1.70;;;0.40;;
23732;SDS011;12047;53.450;-2.286;2023-01-08T08:09:07;2.28;;;0.45;;
23732;SDS011;12047;53.450;-2.286;2023-01-08T08:14:10;2.05;;;0.47;;
23732;SDS011;12047;53.450;-2.286;2023-01-08T08:19:31;5.32;;;2.22;;
23732;SDS011;12047;53.450;-2.286;2023-01-08T08:24:31;1.60;;;0.40;;
23732;SDS011;12047;53.450;-2.286;2023-01-08T08:29:32;2.53;;;0.82;;
23732;SDS011;12047;53.450;-2.286;2023-01-08T08:34:33;0.98;;;0.50;;
23732;SDS011;12047;53.450;-2.286;2023-01-08T08:39:46;2.15;;;0.70;;
23732;SDS011;12047;53.450;-2.286;2023-01-08T08:44:52;1.67;;;0.73;;
23732;SDS011;12047;53.450;-2.286;2023-01-08T08:49:53;3.05;;;0.90;;
23732;SDS011;12047;53.450;-2.286;2023-01-08T08:54:57;3.33;;;0.88;;
23732;SDS011;12047;53.450;-2.286;2023-01-08T08:59:58;1.85;;;0.70;;
23732;SDS011;12047;53.450;-2.286;2023-01-08T09:04:59;6.68;;;0.70;;
23732;SDS011;12047;53.450;-2.286;2023-01-08T09:15:20;3.42;;;0.88;;
23732;SDS011;12047;53.450;-2.286;2023-01-08T09:20:21;5.05;;;0.90;;
23732;SDS011;12047;53.450;-2.286;2023-01-08T09:25:28;3.40;;;1.00;;
23732;SDS011;12047;53.450;-2.286;2023-01-08T09:30:32;4.47;;;1.13;;
23732;SDS011;12047;53.450;-2.286;2023-01-08T09:35:33;2.85;;;1.08;;
23732;SDS011;12047;53.450;-2.286;2023-01-08T09:40:35;5.65;;;1.13;;
23732;SDS011;12047;53.450;-2.286;2023-01-08T09:45:39;6.95;;;1.73;;
23732;SDS011;12047;53.450;-2.286;2023-01-08T09:50:42;4.43;;;0.82;;
23732;SDS011;12047;53.450;-2.286;2023-01-08T09:55:43;4.63;;;1.00;;
23732;SDS011;12047;53.450;-2.286;2023-01-08T10:00:45;4.03;;;1.00;;
23732;SDS011;12047;53.450;-2.286;2023-01-08T10:05:46;3.03;;;1.00;;
23732;SDS011;12047;53.450;-2.286;2023-01-08T10:10:46;4.00;;;1.02;;
23732;SDS011;12047;53.450;-2.286;2023-01-08T10:15:47;8.32;;;1.38;;
23732;SDS011;12047;53.450;-2.286;2023-01-08T10:20:48;5.70;;;1.10;;
23732;SDS011;12047;53.450;-2.286;2023-01-08T10:25:54;9.68;;;1.20;;
23732;SDS011;12047;53.450;-2.286;2023-01-08T10:31:13;3.92;;;1.30;;
23732;SDS011;12047;53.450;-2.286;2023-01-08T10:36:18;7.20;;;1.35;;
23732;SDS011;12047;53.450;-2.286;2023-01-08T10:41:22;8.07;;;1.90;;
23732;SDS011;12047;53.450;-2.286;2023-01-08T10:46:24;6.43;;;1.40;;
23732;SDS011;12047;53.450;-2.286;2023-01-08T10:51:30;10.45;;;1.85;;
23732;SDS011;12047;53.450;-2.286;2023-01-08T10:56:39;13.05;;;2.05;;
23732;SDS011;12047;53.450;-2.286;2023-01-08T11:01:44;10.98;;;2.13;;
23732;SDS011;12047;53.450;-2.286;2023-01-08T11:06:46;13.52;;;2.00;;
23732;SDS011;12047;53.450;-2.286;2023-01-08T11:11:48;12.50;;;1.95;;
23732;SDS011;12047;53.450;-2.286;2023-01-08T11:16:49;18.70;;;2.00;;
23732;SDS011;12047;53.450;-2.286;2023-01-08T11:22:03;11.18;;;1.95;;
23732;SDS011;12047;53.450;-2.286;2023-01-08T11:37:38;14.35;;;2.55;;
23732;SDS011;12047;53.450;-2.286;2023-01-08T11:42:53;16.77;;;2.40;;
23732;SDS011;12047;53.450;-2.286;2023-01-08T11:48:18;16.77;;;3.10;;
23732;SDS011;12047;53.450;-2.286;2023-01-08T11:53:45;13.38;;;2.30;;
23732;SDS011;12047;53.450;-2.286;2023-01-08T12:09:43;20.95;;;3.03;;
23732;SDS011;12047;53.450;-2.286;2023-01-08T12:15:00;19.33;;;3.00;;
23732;SDS011;12047;53.450;-2.286;2023-01-08T12:37:17;5.75;;;0.95;;
23732;SDS011;12047;53.450;-2.286;2023-01-08T12:42:36;4.35;;;1.15;;
23732;SDS011;12047;53.450;-2.286;2023-01-08T12:47:43;3.38;;;0.98;;
23732;SDS011;12047;53.450;-2.286;2023-01-08T12:58:27;4.95;;;0.98;;
23732;SDS011;12047;53.450;-2.286;2023-01-08T13:03:39;4.25;;;1.02;;
23732;SDS011;12047;53.450;-2.286;2023-01-08T13:08:40;2.97;;;0.80;;
23732;SDS011;12047;53.450;-2.286;2023-01-08T13:13:44;1.10;;;0.70;;
23732;SDS011;12047;53.450;-2.286;2023-01-08T13:18:55;2.55;;;1.08;;
23732;SDS011;12047;53.450;-2.286;2023-01-08T13:23:59;1.85;;;0.80;;
23732;SDS011;12047;53.450;-2.286;2023-01-08T13:29:06;0.77;;;0.60;;
23732;SDS011;12047;53.450;-2.286;2023-01-08T13:34:58;2.03;;;0.80;;
23732;SDS011;12047;53.450;-2.286;2023-01-08T13:44:59;2.47;;;0.77;;
23732;SDS011;12047;53.450;-2.286;2023-01-08T13:50:04;1.30;;;0.60;;
23732;SDS011;12047;53.450;-2.286;2023-01-08T13:55:19;2.83;;;0.80;;
23732;SDS011;12047;53.450;-2.286;2023-01-08T14:05:42;2.47;;;0.47;;
23732;SDS011;12047;53.450;-2.286;2023-01-08T14:10:42;3.25;;;1.02;;
23732;SDS011;12047;53.450;-2.286;2023-01-08T14:15:43;0.98;;;0.60;;
23732;SDS011;12047;53.450;-2.286;2023-01-08T14:20:44;1.77;;;0.70;;
23732;SDS011;12047;53.450;-2.286;2023-01-08T14:25:49;1.33;;;0.73;;
23732;SDS011;12047;53.450;-2.286;2023-01-08T14:30:52;1.95;;;0.77;;
23732;SDS011;12047;53.450;-2.286;2023-01-08T14:35:53;3.22;;;0.80;;
23732;SDS011;12047;53.450;-2.286;2023-01-08T14:41:02;2.20;;;1.13;;
23732;SDS011;12047;53.450;-2.286;2023-01-08T14:46:18;1.33;;;0.70;;
23732;SDS011;12047;53.450;-2.286;2023-01-08T14:51:26;2.13;;;0.70;;
23732;SDS011;12047;53.450;-2.286;2023-01-08T14:56:31;3.03;;;0.70;;
23732;SDS011;12047;53.450;-2.286;2023-01-08T15:01:33;2.20;;;0.73;;
23732;SDS011;12047;53.450;-2.286;2023-01-08T15:06:33;4.38;;;1.02;;
23732;SDS011;12047;53.450;-2.286;2023-01-08T15:11:34;1.98;;;1.15;;
23732;SDS011;12047;53.450;-2.286;2023-01-08T15:16:51;2.22;;;0.95;;
23732;SDS011;12047;53.450;-2.286;2023-01-08T15:22:15;2.38;;;0.77;;
23732;SDS011;12047;53.450;-2.286;2023-01-08T15:27:24;3.17;;;1.10;;
23732;SDS011;12047;53.450;-2.286;2023-01-08T15:32:30;3.10;;;0.93;;
23732;SDS011;12047;53.450;-2.286;2023-01-08T15:37:33;2.45;;;0.93;;
23732;SDS011;12047;53.450;-2.286;2023-01-08T15:42:49;1.00;;;0.82;;
23732;SDS011;12047;53.450;-2.286;2023-01-08T15:48:14;2.97;;;0.85;;
23732;SDS011;12047;53.450;-2.286;2023-01-08T15:53:17;1.65;;;1.15;;
23732;SDS011;12047;53.450;-2.286;2023-01-08T15:58:23;2.42;;;1.20;;
23732;SDS011;12047;53.450;-2.286;2023-01-08T16:03:24;3.63;;;1.50;;
23732;SDS011;12047;53.450;-2.286;2023-01-08T16:08:31;2.15;;;1.17;;
23732;SDS011;12047;53.450;-2.286;2023-01-08T16:13:34;1.42;;;1.20;;
23732;SDS011;12047;53.450;-2.286;2023-01-08T16:18:36;13.45;;;8.48;;
23732;SDS011;12047;53.450;-2.286;2023-01-08T16:23:37;5.20;;;3.67;;
23732;SDS011;12047;53.450;-2.286;2023-01-08T16:28:39;4.95;;;2.97;;
23732;SDS011;12047;53.450;-2.286;2023-01-08T16:33:43;4.85;;;1.75;;
23732;SDS011;12047;53.450;-2.286;2023-01-08T16:38:44;3.17;;;1.85;;
23732;SDS011;12047;53.450;-2.286;2023-01-08T16:43:47;7.63;;;2.20;;
23732;SDS011;12047;53.450;-2.286;2023-01-08T16:48:48;3.33;;;2.20;;
23732;SDS011;12047;53.450;-2.286;2023-01-08T16:53:49;4.03;;;2.13;;
23732;SDS011;12047;53.450;-2.286;2023-01-08T16:58:50;5.22;;;1.50;;
23732;SDS011;12047;53.450;-2.286;2023-01-08T17:03:51;3.22;;;1.40;;
23732;SDS011;12047;53.450;-2.286;2023-01-08T17:08:57;3.65;;;1.73;;
23732;SDS011;12047;53.450;-2.286;2023-01-08T17:19:24;7.43;;;2.13;;
23732;SDS011;12047;53.450;-2.286;2023-01-08T17:24:24;4.88;;;2.30;;
23732;SDS011;12047;53.450;-2.286;2023-01-08T17:29:25;8.32;;;1.90;;
23732;SDS011;12047;53.450;-2.286;2023-01-08T17:34:28;5.30;;;1.90;;
23732;SDS011;12047;53.450;-2.286;2023-01-08T17:39:35;3.75;;;1.90;;
23732;SDS011;12047;53.450;-2.286;2023-01-08T17:45:00;4.35;;;1.77;;
23732;SDS011;12047;53.450;-2.286;2023-01-08T17:50:06;6.25;;;2.15;;
23732;SDS011;12047;53.450;-2.286;2023-01-08T17:55:10;5.97;;;2.50;;
23732;SDS011;12047;53.450;-2.286;2023-01-08T18:00:11;4.78;;;1.65;;
23732;SDS011;12047;53.450;-2.286;2023-01-08T18:05:12;18.60;;;5.88;;
23732;SDS011;12047;53.450;-2.286;2023-01-08T18:10:15;5.30;;;2.17;;
23732;SDS011;12047;53.450;-2.286;2023-01-08T18:15:16;19.30;;;7.88;;
23732;SDS011;12047;53.450;-2.286;2023-01-08T18:20:17;11.05;;;5.60;;
23732;SDS011;12047;53.450;-2.286;2023-01-08T18:25:18;8.45;;;2.88;;
23732;SDS011;12047;53.450;-2.286;2023-01-08T18:30:19;6.63;;;2.58;;
23732;SDS011;12047;53.450;-2.286;2023-01-08T18:35:20;8.25;;;3.33;;
23732;SDS011;12047;53.450;-2.286;2023-01-08T18:40:21;6.88;;;2.10;;
23732;SDS011;12047;53.450;-2.286;2023-01-08T18:45:22;4.78;;;2.15;;
23732;SDS011;12047;53.450;-2.286;2023-01-08T18:50:24;7.88;;;2.17;;
23732;SDS011;12047;53.450;-2.286;2023-01-08T18:55:28;9.15;;;2.50;;
23732;SDS011;12047;53.450;-2.286;2023-01-08T19:06:10;8.75;;;2.75;;
23732;SDS011;12047;53.450;-2.286;2023-01-08T19:11:12;6.82;;;2.55;;
23732;SDS011;12047;53.450;-2.286;2023-01-08T19:16:16;12.43;;;2.70;;
23732;SDS011;12047;53.450;-2.286;2023-01-08T19:21:27;9.75;;;2.60;;
23732;SDS011;12047;53.450;-2.286;2023-01-08T19:26:31;14.50;;;3.25;;
23732;SDS011;12047;53.450;-2.286;2023-01-08T19:31:31;14.15;;;3.40;;
23732;SDS011;12047;53.450;-2.286;2023-01-08T19:36:32;16.52;;;3.97;;
23732;SDS011;12047;53.450;-2.286;2023-01-08T19:41:33;18.42;;;4.20;;
23732;SDS011;12047;53.450;-2.286;2023-01-08T19:46:52;10.25;;;3.22;;
23732;SDS011;12047;53.450;-2.286;2023-01-08T19:51:53;12.27;;;3.58;;
23732;SDS011;12047;53.450;-2.286;2023-01-08T19:56:54;16.95;;;3.97;;
23732;SDS011;12047;53.450;-2.286;2023-01-08T20:01:55;16.95;;;4.30;;
23732;SDS011;12047;53.450;-2.286;2023-01-08T20:06:55;11.55;;;2.83;;
23732;SDS011;12047;53.450;-2.286;2023-01-08T20:11:57;16.00;;;3.30;;
23732;SDS011;12047;53.450;-2.286;2023-01-08T20:16:58;16.70;;;3.60;;
23732;SDS011;12047;53.450;-2.286;2023-01-08T20:21:58;15.48;;;3.22;;
23732;SDS011;12047;53.450;-2.286;2023-01-08T20:26:59;14.75;;;3.28;;
23732;SDS011;12047;53.450;-2.286;2023-01-08T20:32:03;13.95;;;3.28;;
23732;SDS011;12047;53.450;-2.286;2023-01-08T20:37:05;17.33;;;3.50;;
23732;SDS011;12047;53.450;-2.286;2023-01-08T20:42:06;18.35;;;3.33;;
23732;SDS011;12047;53.450;-2.286;2023-01-08T20:52:36;10.07;;;3.38;;
23732;SDS011;12047;53.450;-2.286;2023-01-08T20:57:37;12.30;;;3.35;;
23732;SDS011;12047;53.450;-2.286;2023-01-08T21:02:37;16.92;;;4.80;;
23732;SDS011;12047;53.450;-2.286;2023-01-08T21:07:46;17.58;;;4.47;;
23732;SDS011;12047;53.450;-2.286;2023-01-08T21:12:47;16.13;;;3.45;;
23732;SDS011;12047;53.450;-2.286;2023-01-08T21:17:48;14.85;;;3.78;;
23732;SDS011;12047;53.450;-2.286;2023-01-08T21:22:49;14.73;;;3.13;;
23732;SDS011;12047;53.450;-2.286;2023-01-08T21:27:55;19.23;;;4.50;;
23732;SDS011;12047;53.450;-2.286;2023-01-08T21:33:01;19.17;;;3.30;;
23732;SDS011;12047;53.450;-2.286;2023-01-08T21:38:03;12.88;;;3.28;;
23732;SDS011;12047;53.450;-2.286;2023-01-08T21:49:10;18.90;;;3.30;;
23732;SDS011;12047;53.450;-2.286;2023-01-08T21:54:11;13.82;;;3.60;;
23732;SDS011;12047;53.450;-2.286;2023-01-08T21:59:12;14.85;;;3.00;;
23732;SDS011;12047;53.450;-2.286;2023-01-08T22:04:13;13.80;;;2.92;;
23732;SDS011;12047;53.450;-2.286;2023-01-08T22:09:17;16.48;;;2.63;;
23732;SDS011;12047;53.450;-2.286;2023-01-08T22:14:17;20.13;;;3.70;;
23732;SDS011;12047;53.450;-2.286;2023-01-08T22:19:18;21.83;;;3.50;;
23732;SDS011;12047;53.450;-2.286;2023-01-08T22:24:19;15.90;;;3.63;;
23732;SDS011;12047;53.450;-2.286;2023-01-08T22:29:19;14.73;;;3.42;;
23732;SDS011;12047;53.450;-2.286;2023-01-08T22:34:23;20.63;;;3.78;;
23732;SDS011;12047;53.450;-2.286;2023-01-08T22:39:46;12.57;;;3.28;;
23732;SDS011;12047;53.450;-2.286;2023-01-08T22:44:47;13.77;;;3.45;;
23732;SDS011;12047;53.450;-2.286;2023-01-08T22:49:49;13.65;;;3.25;;
23732;SDS011;12047;53.450;-2.286;2023-01-08T22:54:55;14.13;;;3.15;;
23732;SDS011;12047;53.450;-2.286;2023-01-08T22:59:57;11.30;;;3.05;;
23732;SDS011;12047;53.450;-2.286;2023-01-08T23:10:39;17.13;;;3.13;;
23732;SDS011;12047;53.450;-2.286;2023-01-08T23:15:42;14.93;;;2.97;;
23732;SDS011;12047;53.450;-2.286;2023-01-08T23:20:42;19.92;;;3.25;;
23732;SDS011;12047;53.450;-2.286;2023-01-08T23:25:46;16.00;;;3.08;;
23732;SDS011;12047;53.450;-2.286;2023-01-08T23:30:47;12.60;;;2.78;;
23732;SDS011;12047;53.450;-2.286;2023-01-08T23:35:48;15.30;;;3.47;;
23732;SDS011;12047;53.450;-2.286;2023-01-08T23:40:52;15.65;;;3.25;;
23732;SDS011;12047;53.450;-2.286;2023-01-08T23:45:53;11.65;;;3.10;;
23732;SDS011;12047;53.450;-2.286;2023-01-08T23:50:57;20.85;;;3.47;;
23732;SDS011;12047;53.450;-2.286;2023-01-08T23:56:01;14.25;;;3.08;;
